createdAt,value
2019-05-09T00:00:14.967Z,74.27
2019-05-09T00:05:18.345Z,74.44
2019-05-09T00:10:38.058Z,74.96
2019-05-09T00:15:27.087Z,75.30
2019-05-09T00:20:35.111Z,75.55
2019-05-09T00:25:38.612Z,73.47
2019-05-09T00:30:55.525Z,73.37
2019-05-09T00:35:58.930Z,72.53
2019-05-09T00:41:03.869Z,72.60
2019-05-09T00:46:10.051Z,73.42
2019-05-09T00:51:14.096Z,73.87
2019-05-09T00:56:17.679Z,73.91
2019-05-09T01:01:21.061Z,72.97
2019-05-09T01:06:24.446Z,70.40
2019-05-09T01:11:27.837Z,68.91
2019-05-09T01:16:33.499Z,69.25
2019-05-09T01:21:36.534Z,68.39
2019-05-09T01:26:39.959Z,68.06
2019-05-09T01:31:43.724Z,68.57
2019-05-09T01:37:05.116Z,68.63
2019-05-09T01:42:08.657Z,68.81
2019-05-09T01:47:13.722Z,69.18
2019-05-09T01:52:17.223Z,68.75
2019-05-09T01:57:20.651Z,68.87
2019-05-09T02:02:24.059Z,70.00
2019-05-09T02:07:27.469Z,69.82
2019-05-09T02:12:30.838Z,70.13
2019-05-09T02:17:55.806Z,70.54
2019-05-09T02:22:46.833Z,72.08
2019-05-09T02:27:50.215Z,72.59
2019-05-09T02:32:54.755Z,71.85
2019-05-09T02:37:58.784Z,71.84
2019-05-09T02:43:02.412Z,71.90
2019-05-09T02:48:05.819Z,72.29
2019-05-09T02:53:09.468Z,72.62
2019-05-09T02:58:14.503Z,72.34
2019-05-09T03:03:23.565Z,71.99
2019-05-09T03:08:29.523Z,72.28
2019-05-09T03:13:32.060Z,72.89
2019-05-09T03:18:35.494Z,72.89
2019-05-09T03:23:39.189Z,73.38
2019-05-09T03:28:59.435Z,73.45
2019-05-09T03:34:02.905Z,73.45
2019-05-09T03:39:09.108Z,73.20
2019-05-09T03:44:12.489Z,73.73
2019-05-09T03:49:18.069Z,73.31
2019-05-09T03:54:21.527Z,73.07
2019-05-09T03:59:24.919Z,73.88
2019-05-09T04:04:28.394Z,73.97
2019-05-09T04:09:31.774Z,74.21
2019-05-09T04:14:37.539Z,73.78
2019-05-09T04:19:41.079Z,73.31
2019-05-09T04:24:44.732Z,73.31
2019-05-09T04:29:48.488Z,72.59
2019-05-09T04:34:51.835Z,73.01
2019-05-09T04:39:59.499Z,73.34
2019-05-09T04:45:03.546Z,73.84
2019-05-09T04:50:07.617Z,73.65
2019-05-09T04:55:11.862Z,73.19
2019-05-09T05:00:18.414Z,73.63
2019-05-09T05:05:21.874Z,73.68
2019-05-09T05:10:27.286Z,73.49
2019-05-09T05:15:30.342Z,73.47
2019-05-09T05:20:33.988Z,72.82
2019-05-09T05:25:38.281Z,72.67
2019-05-09T05:30:41.739Z,72.40
2019-05-09T05:35:48.025Z,72.34
2019-05-09T05:40:51.455Z,71.90
2019-05-09T05:45:58.461Z,71.75
2019-05-09T05:51:01.711Z,71.29
2019-05-09T05:56:05.481Z,70.31
2019-05-09T06:01:08.859Z,70.46
2019-05-09T06:06:12.241Z,70.57
2019-05-09T06:11:17.711Z,69.41
2019-05-09T06:16:22.414Z,69.31
2019-05-09T06:21:28.405Z,68.94
2019-05-09T06:26:37.347Z,68.61
2019-05-09T06:31:40.863Z,68.05
2019-05-09T06:36:44.242Z,67.90
2019-05-09T06:41:48.476Z,67.16
2019-05-09T06:46:53.661Z,67.50
2019-05-09T06:51:58.034Z,67.01
2019-05-09T06:57:01.647Z,67.26
2019-05-09T07:02:08.211Z,66.70
2019-05-09T07:07:19.222Z,66.42
2019-05-09T07:12:22.609Z,66.73
2019-05-09T07:17:31.671Z,65.28
2019-05-09T07:22:35.483Z,65.44
2019-05-09T07:27:40.501Z,65.73
2019-05-09T07:32:48.752Z,63.74
2019-05-09T07:37:52.328Z,63.23
2019-05-09T07:42:58.190Z,63.20
2019-05-09T07:48:00.824Z,61.52
2019-05-09T07:53:04.199Z,59.23
2019-05-09T07:58:08.204Z,56.97
2019-05-09T08:03:13.237Z,55.69
2019-05-09T08:08:18.539Z,57.23
2019-05-09T08:13:22.177Z,57.71
2019-05-09T08:18:28.020Z,56.34
2019-05-09T08:23:30.944Z,56.34
2019-05-09T08:28:34.318Z,57.04
2019-05-09T08:33:38.273Z,56.54
2019-05-09T08:38:42.109Z,58.21
2019-05-09T08:43:48.191Z,56.60
2019-05-09T08:48:50.812Z,56.31
2019-05-09T08:53:54.286Z,55.35
2019-05-09T08:59:01.782Z,54.62
2019-05-09T09:04:02.772Z,55.47
2019-05-09T09:09:08.086Z,55.93
2019-05-09T09:14:11.642Z,54.84
2019-05-09T09:19:15.047Z,54.88
2019-05-09T09:24:18.383Z,54.52
2019-05-09T09:29:21.760Z,52.82
2019-05-09T09:34:27.103Z,52.88
2019-05-09T09:39:31.356Z,52.44
2019-05-09T09:44:34.960Z,52.77
2019-05-09T09:49:38.912Z,52.92
2019-05-09T09:54:42.294Z,51.90
2019-05-09T09:59:48.359Z,53.25
2019-05-09T10:04:52.083Z,53.04
2019-05-09T10:09:55.437Z,54.81
2019-05-09T10:15:08.341Z,53.51
2019-05-09T10:20:13.252Z,50.62
2019-05-09T10:25:18.256Z,48.89
2019-05-09T10:30:28.868Z,47.55
2019-05-09T10:35:32.227Z,49.22
2019-05-09T10:40:35.578Z,49.09
2019-05-09T10:45:43.553Z,48.74
2019-05-09T10:50:53.876Z,48.00
2019-05-09T10:55:51.977Z,48.57
2019-05-09T11:00:55.307Z,50.13
2019-05-09T11:05:58.704Z,49.51
2019-05-09T11:11:05.706Z,50.37
2019-05-09T11:16:07.712Z,50.08
2019-05-09T11:21:11.317Z,48.48
2019-05-09T11:26:14.731Z,49.86
2019-05-09T11:31:18.822Z,48.75
2019-05-09T11:36:22.420Z,48.63
2019-05-09T11:41:29.075Z,50.13
2019-05-09T11:46:30.844Z,47.67
2019-05-09T11:51:34.186Z,46.94
2019-05-09T11:56:38.373Z,47.15
2019-05-09T12:01:42.199Z,46.88
2019-05-09T12:06:45.670Z,45.70
2019-05-09T12:11:49.014Z,43.85
2019-05-09T12:16:52.452Z,43.11
2019-05-09T12:21:58.118Z,44.05
2019-05-09T12:27:03.121Z,44.43
2019-05-09T12:32:08.581Z,45.30
2019-05-09T12:37:11.197Z,47.19
2019-05-09T12:42:14.630Z,47.50
2019-05-09T12:47:19.027Z,47.69
2019-05-09T12:52:22.515Z,47.02
2019-05-09T12:57:28.662Z,57.00
2019-05-09T13:02:30.931Z,56.88
2019-05-09T13:07:34.283Z,56.26
2019-05-09T13:12:38.797Z,55.05
2019-05-09T13:17:48.051Z,54.20
2019-05-09T13:22:51.796Z,53.61
2019-05-09T13:27:55.187Z,51.98
2019-05-09T13:32:58.536Z,48.85
2019-05-09T13:38:01.905Z,48.80
2019-05-09T13:43:05.337Z,46.98
2019-05-09T13:48:27.079Z,45.76
2019-05-09T13:53:19.198Z,46.47
2019-05-09T13:58:22.125Z,48.40
2019-05-09T14:03:28.139Z,46.58
2019-05-09T14:08:31.574Z,47.40
2019-05-09T14:13:34.942Z,45.53
2019-05-09T14:18:38.609Z,45.72
2019-05-09T14:23:51.135Z,44.83
2019-05-09T14:28:49.053Z,45.64
2019-05-09T14:33:52.222Z,46.86
2019-05-09T14:38:57.934Z,46.72
2019-05-09T14:44:00.777Z,46.77
2019-05-09T14:49:04.105Z,46.91
2019-05-09T14:54:08.381Z,46.33
2019-05-09T14:59:11.850Z,45.37
2019-05-09T15:04:15.284Z,46.03
2019-05-09T15:09:19.032Z,47.70
2019-05-09T15:14:22.564Z,47.73
2019-05-09T15:19:28.576Z,48.33
2019-05-09T15:24:30.974Z,49.65
2019-05-09T15:29:34.383Z,49.93
2019-05-09T15:34:38.291Z,50.15
2019-05-09T15:39:41.743Z,52.07
2019-05-09T15:44:47.521Z,60.50
2019-05-09T15:49:50.118Z,66.16
2019-05-09T15:54:53.511Z,68.81
2019-05-09T15:59:58.839Z,71.27
2019-05-09T16:05:02.088Z,73.94
2019-05-09T16:10:08.514Z,73.97
2019-05-09T16:15:12.040Z,70.42
2019-05-09T16:20:37.417Z,74.00
2019-05-09T16:25:38.786Z,69.83
2019-05-09T16:30:42.198Z,73.77
2019-05-09T16:35:45.557Z,73.03
2019-05-09T16:40:48.927Z,74.47
2019-05-09T16:45:52.966Z,73.79
2019-05-09T16:51:03.329Z,72.96
2019-05-09T16:56:02.107Z,75.08
2019-05-09T17:01:08.147Z,74.22
2019-05-09T17:06:10.765Z,75.47
2019-05-09T17:11:14.128Z,73.96
2019-05-09T17:16:17.908Z,76.14
2019-05-09T17:21:34.776Z,76.32
2019-05-09T17:26:38.306Z,77.04
2019-05-09T17:31:41.715Z,75.92
2019-05-09T17:36:45.036Z,77.35
2019-05-09T17:41:48.384Z,78.28
2019-05-09T17:46:51.793Z,79.01
2019-05-09T17:51:55.414Z,78.87
2019-05-09T17:56:58.829Z,79.15
2019-05-09T18:02:02.476Z,80.01
2019-05-09T18:07:08.531Z,80.35
2019-05-09T18:12:11.118Z,79.55
2019-05-09T18:17:14.485Z,79.60
2019-05-09T18:22:18.622Z,80.36
2019-05-09T18:27:22.195Z,81.11
2019-05-09T18:32:43.490Z,81.31
2019-05-09T18:37:48.100Z,81.22
2019-05-09T18:42:51.847Z,81.06
2019-05-09T18:47:57.840Z,80.22
2019-05-09T18:53:00.437Z,79.80
2019-05-09T18:58:03.856Z,79.67
2019-05-09T19:03:07.190Z,79.32
2019-05-09T19:08:10.613Z,78.90
2019-05-09T19:13:14.034Z,78.04
2019-05-09T19:18:30.981Z,78.06
2019-05-09T19:23:34.333Z,77.86
2019-05-09T19:28:37.778Z,78.67
2019-05-09T19:33:41.102Z,78.31
2019-05-09T19:38:44.449Z,78.05
2019-05-09T19:43:47.785Z,77.88
2019-05-09T19:48:51.134Z,78.14
2019-05-09T19:53:54.480Z,78.19
2019-05-09T19:58:58.013Z,76.01
2019-05-09T20:04:01.379Z,75.46
2019-05-09T20:09:08.406Z,75.99
2019-05-09T20:14:16.414Z,76.34
2019-05-09T20:19:19.823Z,76.44
2019-05-09T20:24:23.286Z,76.78
2019-05-09T20:29:29.786Z,77.77
2019-05-09T20:34:31.831Z,78.65
2019-05-09T20:39:35.381Z,78.40
2019-05-09T20:44:38.914Z,78.12
2019-05-09T20:49:42.504Z,78.06
2019-05-09T20:54:45.980Z,78.17
2019-05-09T20:59:49.557Z,78.02
2019-05-09T21:04:53.091Z,77.96
2019-05-09T21:10:04.631Z,78.31
2019-05-09T21:15:08.720Z,77.87
2019-05-09T21:20:12.263Z,77.47
2019-05-09T21:25:15.974Z,77.45
2019-05-09T21:30:20.562Z,76.59
2019-05-09T21:35:23.896Z,76.80
2019-05-09T21:40:27.358Z,75.94
2019-05-09T21:45:30.687Z,76.09
2019-05-09T21:50:34.101Z,75.62
2019-05-09T21:55:37.524Z,75.32
2019-05-09T22:00:41.560Z,75.42
2019-05-09T22:05:45.019Z,76.05
2019-05-09T22:10:48.439Z,76.29
2019-05-09T22:15:51.949Z,76.71
2019-05-09T22:20:55.355Z,75.90
2019-05-09T22:25:58.891Z,75.40
2019-05-09T22:31:02.225Z,75.29
2019-05-09T22:36:05.570Z,74.99
2019-05-09T22:41:08.927Z,75.03
2019-05-09T22:46:12.340Z,74.17
2019-05-09T22:51:15.755Z,74.03
2019-05-09T22:56:19.126Z,74.18
2019-05-09T23:01:22.567Z,74.36
2019-05-09T23:06:25.907Z,73.67
2019-05-09T23:11:29.307Z,73.30
2019-05-09T23:16:34.464Z,72.95
2019-05-09T23:21:37.932Z,72.88
2019-05-09T23:26:41.348Z,73.04
2019-05-09T23:31:48.834Z,73.15
2019-05-09T23:36:52.196Z,73.47
2019-05-09T23:41:55.543Z,73.52
2019-05-09T23:46:59.065Z,73.22
2019-05-09T23:52:02.459Z,73.33
2019-05-09T23:57:24.606Z,73.53
